Coober Pedy, South Australia

1:02 PM ACDT on November 29, 2014 (GMT +1030)
Coober Pedy | Change Station
CLOSE
Current Station
Airport
Location: Coober Pedy Airport,
Elevation: 738 ft
Nearby Weather Stations

Elev 738 ft 29.04 °S, 134.72 °E | Updated 21 minutes ago

Clear
Clear
99 °F
Feels Like 99 °F
N
18
Wind Variable Wind from North

Today
High -- | Low -- °F
--% Chance of Precip.
Yesterday
High -- | Low -- °F
Precip. -- in
6:24 AM 8:13 PM
Waxing Crescent, 46% visible
Pressure 29.80 in
Visibility -9999.0 miles
Clouds
Dew Point 30 °F
Humidity 9%
Rainfall 0.00 in
Snow Depth Not available.
UV Not available.
Pollen Not available.
Air Quality Not available.
Flu Activity Not available.
SPECI YCBP 290211Z AUTO 36016KT 350V050 //// // NCD 37/M01 Q1009

More Conditions Fewer Conditions

Pressure 29.80 in
Visibility -9999.0 miles
Clouds
Dew Point 30 °F
Humidity 9%
Rainfall 0.00 in
Snow Depth Not available.
UV Not available.
Pollen Not available.
Air Quality Not available.
Flu Activity Not available.
SPECI YCBP 290211Z AUTO 36016KT 350V050 //// // NCD 37/M01 Q1009

More Conditions Fewer Conditions

10-Day Weather Forecast

Almanac

Astronomy

Nov. 29, 2014 Rise Set
Actual Time
Civil Twilight
Nautical Twilight
Astronomical Twilight
Moon
Length of Visible Light
Length of Day
Tomorrow will be .
, % of the Moon is Illuminated

Today's Extremes

Country Highs Country Lows

Community

WunderPhotos

Upload Photos

1,774,375 photos uploaded!

WunderBlogs® & News

Nearby

Air Quality

  Air Quality AQ Index Pollutant
Not available.

Snow Depth

Station Depth Elevation

Earthquake Activity

City Distance Mag. Time & Date
Minimum magnitude displayed is 2.5.

Coastal Water Temperatures

Place Temperature

Nearby Weather Stations